sensor_id;sensor_type;location;lat;lon;timestamp;temperature;humidity
25732;DHT22;13585;50.864;4.406;2023-03-23T00:10:19;17.70;71.90
25732;DHT22;13585;50.864;4.406;2023-03-23T00:12:56;17.70;71.90
25732;DHT22;13585;50.864;4.406;2023-03-23T00:15:37;17.70;72.00
25732;DHT22;13585;50.864;4.406;2023-03-23T00:18:09;17.60;71.90
25732;DHT22;13585;50.864;4.406;2023-03-23T00:20:46;17.70;71.90
25732;DHT22;13585;50.864;4.406;2023-03-23T00:23:17;17.70;71.90
25732;DHT22;13585;50.864;4.406;2023-03-23T00:25:48;17.60;71.80
25732;DHT22;13585;50.864;4.406;2023-03-23T00:28:15;17.60;71.80
25732;DHT22;13585;50.864;4.406;2023-03-23T00:30:41;17.70;71.80
25732;DHT22;13585;50.864;4.406;2023-03-23T00:33:10;17.60;71.70
25732;DHT22;13585;50.864;4.406;2023-03-23T00:35:38;17.70;71.80
25732;DHT22;13585;50.864;4.406;2023-03-23T00:38:05;17.70;71.70
25732;DHT22;13585;50.864;4.406;2023-03-23T00:40:42;17.60;71.80
25732;DHT22;13585;50.864;4.406;2023-03-23T00:43:17;17.60;71.80
25732;DHT22;13585;50.864;4.406;2023-03-23T00:45:52;17.60;71.60
25732;DHT22;13585;50.864;4.406;2023-03-23T00:48:19;17.60;71.70
25732;DHT22;13585;50.864;4.406;2023-03-23T00:50:57;17.70;71.60
25732;DHT22;13585;50.864;4.406;2023-03-23T00:53:35;17.60;71.60
25732;DHT22;13585;50.864;4.406;2023-03-23T00:56:01;17.70;71.70
25732;DHT22;13585;50.864;4.406;2023-03-23T00:58:26;17.70;71.50
25732;DHT22;13585;50.864;4.406;2023-03-23T01:01:22;17.70;71.60
25732;DHT22;13585;50.864;4.406;2023-03-23T01:04:20;17.70;72.40
25732;DHT22;13585;50.864;4.406;2023-03-23T01:10:03;17.60;71.50
25732;DHT22;13585;50.864;4.406;2023-03-23T01:12:57;17.60;71.40
25732;DHT22;13585;50.864;4.406;2023-03-23T01:18:30;17.60;71.40
25732;DHT22;13585;50.864;4.406;2023-03-23T01:20:56;17.70;71.60
25732;DHT22;13585;50.864;4.406;2023-03-23T01:23:39;17.60;71.40
25732;DHT22;13585;50.864;4.406;2023-03-23T01:26:17;17.60;71.40
25732;DHT22;13585;50.864;4.406;2023-03-23T01:28:46;17.60;72.10
25732;DHT22;13585;50.864;4.406;2023-03-23T01:31:23;17.60;71.30
25732;DHT22;13585;50.864;4.406;2023-03-23T01:34:21;17.60;71.40
25732;DHT22;13585;50.864;4.406;2023-03-23T01:36:58;17.70;71.50
25732;DHT22;13585;50.864;4.406;2023-03-23T01:39:26;17.60;71.30
25732;DHT22;13585;50.864;4.406;2023-03-23T01:41:52;17.60;71.30
25732;DHT22;13585;50.864;4.406;2023-03-23T01:46:44;17.60;71.20
25732;DHT22;13585;50.864;4.406;2023-03-23T01:49:17;17.60;71.20
25732;DHT22;13585;50.864;4.406;2023-03-23T01:51:48;17.60;71.20
25732;DHT22;13585;50.864;4.406;2023-03-23T01:54:17;17.60;71.10
25732;DHT22;13585;50.864;4.406;2023-03-23T01:57:02;17.60;71.20
25732;DHT22;13585;50.864;4.406;2023-03-23T01:59:30;17.60;71.20
25732;DHT22;13585;50.864;4.406;2023-03-23T02:01:57;17.60;71.10
25732;DHT22;13585;50.864;4.406;2023-03-23T02:04:26;17.60;71.10
25732;DHT22;13585;50.864;4.406;2023-03-23T02:06:53;17.60;71.10
25732;DHT22;13585;50.864;4.406;2023-03-23T02:09:26;17.60;71.10
25732;DHT22;13585;50.864;4.406;2023-03-23T02:11:53;17.60;71.00
25732;DHT22;13585;50.864;4.406;2023-03-23T02:14:19;17.60;71.10
25732;DHT22;13585;50.864;4.406;2023-03-23T02:16:58;17.60;71.00
25732;DHT22;13585;50.864;4.406;2023-03-23T02:23:14;17.60;71.10
25732;DHT22;13585;50.864;4.406;2023-03-23T02:33:38;17.60;70.90
25732;DHT22;13585;50.864;4.406;2023-03-23T02:36:13;17.60;70.90
25732;DHT22;13585;50.864;4.406;2023-03-23T02:41:19;17.60;70.90
25732;DHT22;13585;50.864;4.406;2023-03-23T02:43:47;17.60;70.90
25732;DHT22;13585;50.864;4.406;2023-03-23T02:46:15;17.60;70.90
25732;DHT22;13585;50.864;4.406;2023-03-23T02:48:57;17.60;70.80
25732;DHT22;13585;50.864;4.406;2023-03-23T02:51:24;17.60;70.90
25732;DHT22;13585;50.864;4.406;2023-03-23T02:54:05;17.70;70.90
25732;DHT22;13585;50.864;4.406;2023-03-23T02:56:52;17.60;70.90
25732;DHT22;13585;50.864;4.406;2023-03-23T02:59:54;17.60;70.70
25732;DHT22;13585;50.864;4.406;2023-03-23T03:02:46;17.70;70.90
25732;DHT22;13585;50.864;4.406;2023-03-23T03:11:21;17.60;70.70
25732;DHT22;13585;50.864;4.406;2023-03-23T03:14:00;17.60;70.70
25732;DHT22;13585;50.864;4.406;2023-03-23T03:21:54;17.60;70.60
25732;DHT22;13585;50.864;4.406;2023-03-23T03:24:28;17.60;70.50
25732;DHT22;13585;50.864;4.406;2023-03-23T03:26:58;17.60;70.60
25732;DHT22;13585;50.864;4.406;2023-03-23T03:29:33;17.60;70.70
25732;DHT22;13585;50.864;4.406;2023-03-23T03:32:01;17.60;70.70
25732;DHT22;13585;50.864;4.406;2023-03-23T03:34:29;17.60;70.70
25732;DHT22;13585;50.864;4.406;2023-03-23T03:36:58;17.60;70.60
25732;DHT22;13585;50.864;4.406;2023-03-23T03:39:25;17.60;70.70
25732;DHT22;13585;50.864;4.406;2023-03-23T03:41:51;17.60;70.60
25732;DHT22;13585;50.864;4.406;2023-03-23T03:44:16;17.60;70.60
25732;DHT22;13585;50.864;4.406;2023-03-23T03:46:42;17.60;70.50
25732;DHT22;13585;50.864;4.406;2023-03-23T03:49:09;17.60;70.50
25732;DHT22;13585;50.864;4.406;2023-03-23T03:51:35;17.60;70.50
25732;DHT22;13585;50.864;4.406;2023-03-23T03:54:02;17.60;70.40
25732;DHT22;13585;50.864;4.406;2023-03-23T03:56:29;17.60;70.40
25732;DHT22;13585;50.864;4.406;2023-03-23T03:58:56;17.60;70.40
25732;DHT22;13585;50.864;4.406;2023-03-23T04:01:24;17.60;70.40
25732;DHT22;13585;50.864;4.406;2023-03-23T04:03:51;17.60;70.40
25732;DHT22;13585;50.864;4.406;2023-03-23T04:06:17;17.60;70.30
25732;DHT22;13585;50.864;4.406;2023-03-23T04:08:44;17.60;71.10
25732;DHT22;13585;50.864;4.406;2023-03-23T04:11:12;17.60;70.30
25732;DHT22;13585;50.864;4.406;2023-03-23T04:13:39;17.60;70.30
25732;DHT22;13585;50.864;4.406;2023-03-23T04:16:05;17.60;70.30
25732;DHT22;13585;50.864;4.406;2023-03-23T04:18:31;17.60;70.30
25732;DHT22;13585;50.864;4.406;2023-03-23T04:21:01;17.60;71.00
25732;DHT22;13585;50.864;4.406;2023-03-23T04:23:28;17.60;70.20
25732;DHT22;13585;50.864;4.406;2023-03-23T04:25:56;17.60;70.20
25732;DHT22;13585;50.864;4.406;2023-03-23T04:28:24;17.60;70.20
25732;DHT22;13585;50.864;4.406;2023-03-23T04:30:51;17.60;70.20
25732;DHT22;13585;50.864;4.406;2023-03-23T04:33:22;17.60;70.20
25732;DHT22;13585;50.864;4.406;2023-03-23T04:35:51;17.60;70.20
25732;DHT22;13585;50.864;4.406;2023-03-23T04:38:18;17.60;70.10
25732;DHT22;13585;50.864;4.406;2023-03-23T04:40:50;17.60;70.10
25732;DHT22;13585;50.864;4.406;2023-03-23T04:43:21;17.60;70.10
25732;DHT22;13585;50.864;4.406;2023-03-23T04:45:58;17.60;70.10
25732;DHT22;13585;50.864;4.406;2023-03-23T04:48:28;17.60;70.10
25732;DHT22;13585;50.864;4.406;2023-03-23T04:50:55;17.60;70.00
25732;DHT22;13585;50.864;4.406;2023-03-23T04:53:21;17.60;70.00
25732;DHT22;13585;50.864;4.406;2023-03-23T04:55:48;17.60;70.00
25732;DHT22;13585;50.864;4.406;2023-03-23T04:58:15;17.60;70.00
25732;DHT22;13585;50.864;4.406;2023-03-23T05:00:42;17.60;70.00
25732;DHT22;13585;50.864;4.406;2023-03-23T05:03:11;17.60;70.00
25732;DHT22;13585;50.864;4.406;2023-03-23T05:05:42;17.60;69.90
25732;DHT22;13585;50.864;4.406;2023-03-23T05:08:12;17.60;69.90
25732;DHT22;13585;50.864;4.406;2023-03-23T05:10:38;17.60;69.90
25732;DHT22;13585;50.864;4.406;2023-03-23T05:13:04;17.60;70.00
25732;DHT22;13585;50.864;4.406;2023-03-23T05:15:30;17.60;69.90
25732;DHT22;13585;50.864;4.406;2023-03-23T05:17:56;17.60;69.80
25732;DHT22;13585;50.864;4.406;2023-03-23T05:20:23;17.60;69.80
25732;DHT22;13585;50.864;4.406;2023-03-23T05:22:50;17.60;69.80
25732;DHT22;13585;50.864;4.406;2023-03-23T05:25:18;17.60;69.80
25732;DHT22;13585;50.864;4.406;2023-03-23T05:27:48;17.60;69.80
25732;DHT22;13585;50.864;4.406;2023-03-23T05:30:18;17.60;69.80
25732;DHT22;13585;50.864;4.406;2023-03-23T05:32:45;17.50;69.60
25732;DHT22;13585;50.864;4.406;2023-03-23T05:35:11;17.60;69.70
25732;DHT22;13585;50.864;4.406;2023-03-23T05:37:38;17.60;69.70
25732;DHT22;13585;50.864;4.406;2023-03-23T05:40:06;17.60;69.70
25732;DHT22;13585;50.864;4.406;2023-03-23T05:42:35;17.60;69.60
25732;DHT22;13585;50.864;4.406;2023-03-23T05:45:04;17.60;69.60
25732;DHT22;13585;50.864;4.406;2023-03-23T05:47:31;17.60;69.60
25732;DHT22;13585;50.864;4.406;2023-03-23T05:49:57;17.60;69.60
25732;DHT22;13585;50.864;4.406;2023-03-23T05:52:23;17.60;70.40
25732;DHT22;13585;50.864;4.406;2023-03-23T05:54:52;17.50;69.50
25732;DHT22;13585;50.864;4.406;2023-03-23T05:57:18;17.50;69.50
25732;DHT22;13585;50.864;4.406;2023-03-23T05:59:44;17.50;69.50
25732;DHT22;13585;50.864;4.406;2023-03-23T06:02:10;17.60;69.50
25732;DHT22;13585;50.864;4.406;2023-03-23T06:04:36;17.60;69.50
25732;DHT22;13585;50.864;4.406;2023-03-23T06:07:04;17.60;69.50
25732;DHT22;13585;50.864;4.406;2023-03-23T06:09:30;17.50;69.40
25732;DHT22;13585;50.864;4.406;2023-03-23T06:11:59;17.60;69.50
25732;DHT22;13585;50.864;4.406;2023-03-23T06:14:24;17.50;69.40
25732;DHT22;13585;50.864;4.406;2023-03-23T06:16:51;17.50;69.40
25732;DHT22;13585;50.864;4.406;2023-03-23T06:19:17;17.50;69.40
25732;DHT22;13585;50.864;4.406;2023-03-23T06:21:42;17.50;69.40
25732;DHT22;13585;50.864;4.406;2023-03-23T06:24:09;17.50;69.30
25732;DHT22;13585;50.864;4.406;2023-03-23T06:26:38;17.60;69.40
25732;DHT22;13585;50.864;4.406;2023-03-23T06:29:05;17.50;69.30
25732;DHT22;13585;50.864;4.406;2023-03-23T06:31:42;17.60;69.30
25732;DHT22;13585;50.864;4.406;2023-03-23T06:34:08;17.50;69.20
25732;DHT22;13585;50.864;4.406;2023-03-23T06:36:35;17.60;69.20
25732;DHT22;13585;50.864;4.406;2023-03-23T06:39:02;17.50;69.20
25732;DHT22;13585;50.864;4.406;2023-03-23T06:41:30;17.50;69.20
25732;DHT22;13585;50.864;4.406;2023-03-23T06:43:55;17.60;69.30
25732;DHT22;13585;50.864;4.406;2023-03-23T06:46:21;17.50;69.20
25732;DHT22;13585;50.864;4.406;2023-03-23T06:48:47;17.50;69.20
25732;DHT22;13585;50.864;4.406;2023-03-23T06:51:15;17.50;69.30
25732;DHT22;13585;50.864;4.406;2023-03-23T06:53:40;17.60;69.40
25732;DHT22;13585;50.864;4.406;2023-03-23T06:56:06;17.50;69.30
25732;DHT22;13585;50.864;4.406;2023-03-23T07:01:37;17.60;69.50
25732;DHT22;13585;50.864;4.406;2023-03-23T07:04:06;17.50;69.30
25732;DHT22;13585;50.864;4.406;2023-03-23T07:06:32;17.60;69.50
25732;DHT22;13585;50.864;4.406;2023-03-23T07:08:57;17.60;69.50
25732;DHT22;13585;50.864;4.406;2023-03-23T07:11:23;17.60;69.50
25732;DHT22;13585;50.864;4.406;2023-03-23T07:13:49;17.60;69.50
25732;DHT22;13585;50.864;4.406;2023-03-23T07:16:16;17.60;69.50
25732;DHT22;13585;50.864;4.406;2023-03-23T07:18:42;17.60;69.50
25732;DHT22;13585;50.864;4.406;2023-03-23T07:21:08;17.60;69.50
25732;DHT22;13585;50.864;4.406;2023-03-23T07:23:33;17.60;69.50
25732;DHT22;13585;50.864;4.406;2023-03-23T07:25:59;17.50;69.40
25732;DHT22;13585;50.864;4.406;2023-03-23T07:28:26;17.60;69.50
25732;DHT22;13585;50.864;4.406;2023-03-23T07:30:51;17.60;69.50
25732;DHT22;13585;50.864;4.406;2023-03-23T07:33:18;17.60;69.50
25732;DHT22;13585;50.864;4.406;2023-03-23T07:35:44;17.60;69.50
25732;DHT22;13585;50.864;4.406;2023-03-23T07:38:09;17.60;69.50
25732;DHT22;13585;50.864;4.406;2023-03-23T07:40:35;17.60;69.50
25732;DHT22;13585;50.864;4.406;2023-03-23T07:43:03;17.60;69.50
25732;DHT22;13585;50.864;4.406;2023-03-23T07:45:29;17.60;69.40
25732;DHT22;13585;50.864;4.406;2023-03-23T07:47:55;17.50;69.30
25732;DHT22;13585;50.864;4.406;2023-03-23T07:50:22;17.60;69.40
25732;DHT22;13585;50.864;4.406;2023-03-23T07:52:50;17.50;69.30
25732;DHT22;13585;50.864;4.406;2023-03-23T07:55:16;17.60;69.30
25732;DHT22;13585;50.864;4.406;2023-03-23T07:57:46;17.50;69.30
25732;DHT22;13585;50.864;4.406;2023-03-23T08:00:14;17.60;69.30
25732;DHT22;13585;50.864;4.406;2023-03-23T08:02:45;17.60;69.20
25732;DHT22;13585;50.864;4.406;2023-03-23T08:05:12;17.60;69.20
25732;DHT22;13585;50.864;4.406;2023-03-23T08:07:39;17.60;69.20
25732;DHT22;13585;50.864;4.406;2023-03-23T08:10:06;17.60;69.20
25732;DHT22;13585;50.864;4.406;2023-03-23T08:12:36;17.60;69.20
25732;DHT22;13585;50.864;4.406;2023-03-23T08:15:03;17.60;69.20
25732;DHT22;13585;50.864;4.406;2023-03-23T08:17:29;17.50;69.10
25732;DHT22;13585;50.864;4.406;2023-03-23T08:19:54;17.50;69.10
25732;DHT22;13585;50.864;4.406;2023-03-23T08:22:20;17.60;69.20
25732;DHT22;13585;50.864;4.406;2023-03-23T08:24:46;17.60;69.20
25732;DHT22;13585;50.864;4.406;2023-03-23T08:27:12;17.60;69.20
25732;DHT22;13585;50.864;4.406;2023-03-23T08:29:38;17.50;69.10
25732;DHT22;13585;50.864;4.406;2023-03-23T08:32:04;17.50;69.10
25732;DHT22;13585;50.864;4.406;2023-03-23T08:34:30;17.60;69.20
25732;DHT22;13585;50.864;4.406;2023-03-23T08:36:56;17.50;69.10
25732;DHT22;13585;50.864;4.406;2023-03-23T08:39:22;17.50;69.20
25732;DHT22;13585;50.864;4.406;2023-03-23T08:41:49;17.60;69.20
25732;DHT22;13585;50.864;4.406;2023-03-23T08:44:14;17.50;69.20
25732;DHT22;13585;50.864;4.406;2023-03-23T08:46:40;17.60;69.20
25732;DHT22;13585;50.864;4.406;2023-03-23T08:49:06;17.50;69.10
25732;DHT22;13585;50.864;4.406;2023-03-23T08:51:33;17.60;69.20
25732;DHT22;13585;50.864;4.406;2023-03-23T08:53:59;17.50;69.10
25732;DHT22;13585;50.864;4.406;2023-03-23T08:56:24;17.50;69.10
25732;DHT22;13585;50.864;4.406;2023-03-23T08:58:50;17.60;69.20
25732;DHT22;13585;50.864;4.406;2023-03-23T09:01:16;17.50;69.90
25732;DHT22;13585;50.864;4.406;2023-03-23T09:03:42;17.60;69.20
25732;DHT22;13585;50.864;4.406;2023-03-23T09:06:09;17.50;69.10
25732;DHT22;13585;50.864;4.406;2023-03-23T09:08:36;17.60;69.20
25732;DHT22;13585;50.864;4.406;2023-03-23T09:11:19;17.50;69.10
25732;DHT22;13585;50.864;4.406;2023-03-23T09:13:50;17.60;69.20
25732;DHT22;13585;50.864;4.406;2023-03-23T09:16:27;17.60;69.20
25732;DHT22;13585;50.864;4.406;2023-03-23T09:18:56;17.50;69.20
25732;DHT22;13585;50.864;4.406;2023-03-23T09:24:40;17.60;69.30
25732;DHT22;13585;50.864;4.406;2023-03-23T09:27:18;17.60;69.20
25732;DHT22;13585;50.864;4.406;2023-03-23T09:29:44;17.50;69.20
25732;DHT22;13585;50.864;4.406;2023-03-23T09:32:10;17.50;69.20
25732;DHT22;13585;50.864;4.406;2023-03-23T09:34:38;17.60;69.30
25732;DHT22;13585;50.864;4.406;2023-03-23T09:37:05;17.60;69.30
25732;DHT22;13585;50.864;4.406;2023-03-23T09:39:31;17.60;69.40
25732;DHT22;13585;50.864;4.406;2023-03-23T09:42:18;17.50;69.30
25732;DHT22;13585;50.864;4.406;2023-03-23T09:50:32;17.50;69.30
25732;DHT22;13585;50.864;4.406;2023-03-23T09:53:19;17.60;69.30
25732;DHT22;13585;50.864;4.406;2023-03-23T09:55:46;17.60;69.50
25732;DHT22;13585;50.864;4.406;2023-03-23T09:58:22;17.60;69.40
25732;DHT22;13585;50.864;4.406;2023-03-23T10:01:14;17.60;69.50
25732;DHT22;13585;50.864;4.406;2023-03-23T10:03:42;17.60;69.50
25732;DHT22;13585;50.864;4.406;2023-03-23T10:06:14;17.60;69.40
25732;DHT22;13585;50.864;4.406;2023-03-23T10:08:57;17.60;69.50
25732;DHT22;13585;50.864;4.406;2023-03-23T10:14:12;17.60;69.50
25732;DHT22;13585;50.864;4.406;2023-03-23T10:16:47;17.60;69.50
25732;DHT22;13585;50.864;4.406;2023-03-23T10:19:44;17.60;69.60
25732;DHT22;13585;50.864;4.406;2023-03-23T10:22:14;17.60;69.70
25732;DHT22;13585;50.864;4.406;2023-03-23T10:30:34;17.60;69.60
25732;DHT22;13585;50.864;4.406;2023-03-23T10:35:43;17.60;69.70
25732;DHT22;13585;50.864;4.406;2023-03-23T10:38:26;17.60;69.70
25732;DHT22;13585;50.864;4.406;2023-03-23T10:40:57;17.60;69.80
25732;DHT22;13585;50.864;4.406;2023-03-23T10:43:24;17.60;69.80
25732;DHT22;13585;50.864;4.406;2023-03-23T10:45:57;17.60;69.80
25732;DHT22;13585;50.864;4.406;2023-03-23T10:48:30;17.60;69.90
25732;DHT22;13585;50.864;4.406;2023-03-23T10:51:00;17.60;69.90
25732;DHT22;13585;50.864;4.406;2023-03-23T10:53:34;17.60;69.90
25732;DHT22;13585;50.864;4.406;2023-03-23T10:56:01;17.60;70.00
25732;DHT22;13585;50.864;4.406;2023-03-23T10:58:32;17.60;70.00
25732;DHT22;13585;50.864;4.406;2023-03-23T11:01:00;17.60;70.00
25732;DHT22;13585;50.864;4.406;2023-03-23T11:03:38;17.60;69.90
25732;DHT22;13585;50.864;4.406;2023-03-23T11:06:09;17.60;70.00
25732;DHT22;13585;50.864;4.406;2023-03-23T11:08:46;17.60;70.00
25732;DHT22;13585;50.864;4.406;2023-03-23T11:11:29;17.60;70.10
25732;DHT22;13585;50.864;4.406;2023-03-23T11:14:01;17.60;70.00
25732;DHT22;13585;50.864;4.406;2023-03-23T11:16:33;17.60;70.10
25732;DHT22;13585;50.864;4.406;2023-03-23T11:19:00;17.60;70.00
25732;DHT22;13585;50.864;4.406;2023-03-23T11:21:38;17.70;70.10
25732;DHT22;13585;50.864;4.406;2023-03-23T11:24:05;17.70;70.20
25732;DHT22;13585;50.864;4.406;2023-03-23T11:26:33;17.70;70.30
25732;DHT22;13585;50.864;4.406;2023-03-23T11:31:43;17.70;70.80
25732;DHT22;13585;50.864;4.406;2023-03-23T11:34:16;17.60;70.60
25732;DHT22;13585;50.864;4.406;2023-03-23T11:36:55;17.70;70.80
25732;DHT22;13585;50.864;4.406;2023-03-23T11:39:28;17.60;70.80
25732;DHT22;13585;50.864;4.406;2023-03-23T11:41:57;17.70;70.90
25732;DHT22;13585;50.864;4.406;2023-03-23T11:44:33;17.70;71.00
25732;DHT22;13585;50.864;4.406;2023-03-23T11:47:08;17.70;71.10
25732;DHT22;13585;50.864;4.406;2023-03-23T11:49:39;17.70;71.20
25732;DHT22;13585;50.864;4.406;2023-03-23T11:52:21;17.80;71.40
25732;DHT22;13585;50.864;4.406;2023-03-23T11:54:55;17.70;71.50
25732;DHT22;13585;50.864;4.406;2023-03-23T11:57:22;17.70;71.40
25732;DHT22;13585;50.864;4.406;2023-03-23T11:59:49;17.80;71.50
25732;DHT22;13585;50.864;4.406;2023-03-23T12:02:57;17.70;71.60
25732;DHT22;13585;50.864;4.406;2023-03-23T12:13:36;17.80;72.10
25732;DHT22;13585;50.864;4.406;2023-03-23T12:16:27;17.80;72.10
25732;DHT22;13585;50.864;4.406;2023-03-23T12:27:35;17.80;72.40
25732;DHT22;13585;50.864;4.406;2023-03-23T12:33:08;17.80;72.60
25732;DHT22;13585;50.864;4.406;2023-03-23T12:43:49;17.80;72.80
25732;DHT22;13585;50.864;4.406;2023-03-23T12:47:03;17.80;72.90
25732;DHT22;13585;50.864;4.406;2023-03-23T12:49:37;17.90;73.00
25732;DHT22;13585;50.864;4.406;2023-03-23T12:58:03;17.90;73.20
25732;DHT22;13585;50.864;4.406;2023-03-23T13:00:33;17.90;73.30
25732;DHT22;13585;50.864;4.406;2023-03-23T13:03:09;17.90;73.30
25732;DHT22;13585;50.864;4.406;2023-03-23T13:06:00;17.90;73.40
25732;DHT22;13585;50.864;4.406;2023-03-23T13:08:30;17.90;73.40
25732;DHT22;13585;50.864;4.406;2023-03-23T13:11:03;17.90;73.50
25732;DHT22;13585;50.864;4.406;2023-03-23T13:22:31;17.90;73.50
25732;DHT22;13585;50.864;4.406;2023-03-23T13:25:02;17.90;73.60
25732;DHT22;13585;50.864;4.406;2023-03-23T13:27:29;17.90;73.60
25732;DHT22;13585;50.864;4.406;2023-03-23T13:29:55;17.90;73.60
25732;DHT22;13585;50.864;4.406;2023-03-23T13:32:39;17.90;73.70
25732;DHT22;13585;50.864;4.406;2023-03-23T13:35:13;17.90;74.00
25732;DHT22;13585;50.864;4.406;2023-03-23T13:37:47;17.90;73.80
25732;DHT22;13585;50.864;4.406;2023-03-23T13:40:16;18.00;73.80
25732;DHT22;13585;50.864;4.406;2023-03-23T13:42:54;18.00;73.50
25732;DHT22;13585;50.864;4.406;2023-03-23T13:45:24;18.00;73.70
25732;DHT22;13585;50.864;4.406;2023-03-23T13:50:55;17.90;73.80
25732;DHT22;13585;50.864;4.406;2023-03-23T13:53:50;18.00;74.00
25732;DHT22;13585;50.864;4.406;2023-03-23T13:56:31;17.90;74.00
25732;DHT22;13585;50.864;4.406;2023-03-23T14:01:53;18.00;74.20
25732;DHT22;13585;50.864;4.406;2023-03-23T14:04:20;18.00;74.00
25732;DHT22;13585;50.864;4.406;2023-03-23T14:06:49;18.00;74.10
25732;DHT22;13585;50.864;4.406;2023-03-23T14:09:27;18.00;74.20
25732;DHT22;13585;50.864;4.406;2023-03-23T14:12:02;18.00;74.20
25732;DHT22;13585;50.864;4.406;2023-03-23T14:14:40;17.90;74.20
25732;DHT22;13585;50.864;4.406;2023-03-23T14:19:46;17.90;74.20
25732;DHT22;13585;50.864;4.406;2023-03-23T14:22:23;18.00;74.20
25732;DHT22;13585;50.864;4.406;2023-03-23T14:24:50;17.90;75.00
25732;DHT22;13585;50.864;4.406;2023-03-23T14:27:26;17.90;74.20
25732;DHT22;13585;50.864;4.406;2023-03-23T14:30:08;18.00;74.30
25732;DHT22;13585;50.864;4.406;2023-03-23T14:32:37;18.00;74.30
25732;DHT22;13585;50.864;4.406;2023-03-23T14:35:30;18.00;74.20
25732;DHT22;13585;50.864;4.406;2023-03-23T14:37:57;18.00;74.30
25732;DHT22;13585;50.864;4.406;2023-03-23T14:40:23;18.00;74.20
25732;DHT22;13585;50.864;4.406;2023-03-23T14:42:52;18.00;74.20
25732;DHT22;13585;50.864;4.406;2023-03-23T14:45:20;18.00;74.30
25732;DHT22;13585;50.864;4.406;2023-03-23T14:47:50;18.00;74.30
25732;DHT22;13585;50.864;4.406;2023-03-23T14:50:29;18.00;74.30
25732;DHT22;13585;50.864;4.406;2023-03-23T14:53:02;18.00;74.40
25732;DHT22;13585;50.864;4.406;2023-03-23T14:55:30;18.00;74.30
25732;DHT22;13585;50.864;4.406;2023-03-23T14:58:05;18.00;74.30
25732;DHT22;13585;50.864;4.406;2023-03-23T15:00:36;18.00;74.30
25732;DHT22;13585;50.864;4.406;2023-03-23T15:03:05;18.00;74.30
25732;DHT22;13585;50.864;4.406;2023-03-23T15:05:35;18.00;74.20
25732;DHT22;13585;50.864;4.406;2023-03-23T15:08:40;18.00;74.30
25732;DHT22;13585;50.864;4.406;2023-03-23T15:13:48;18.00;74.30
25732;DHT22;13585;50.864;4.406;2023-03-23T15:16:20;18.00;74.20
25732;DHT22;13585;50.864;4.406;2023-03-23T15:19:22;18.00;74.20
25732;DHT22;13585;50.864;4.406;2023-03-23T15:37:38;18.00;74.30
25732;DHT22;13585;50.864;4.406;2023-03-23T15:40:04;18.00;74.40
25732;DHT22;13585;50.864;4.406;2023-03-23T15:42:32;18.00;74.20
25732;DHT22;13585;50.864;4.406;2023-03-23T15:52:56;18.00;74.30
25732;DHT22;13585;50.864;4.406;2023-03-23T15:55:27;18.00;74.20
25732;DHT22;13585;50.864;4.406;2023-03-23T15:57:55;18.00;74.20
25732;DHT22;13585;50.864;4.406;2023-03-23T16:03:03;18.00;74.20
25732;DHT22;13585;50.864;4.406;2023-03-23T16:05:29;18.00;74.30
25732;DHT22;13585;50.864;4.406;2023-03-23T16:07:55;18.00;74.20
25732;DHT22;13585;50.864;4.406;2023-03-23T16:10:22;18.00;74.20
25732;DHT22;13585;50.864;4.406;2023-03-23T16:12:49;18.00;74.20
25732;DHT22;13585;50.864;4.406;2023-03-23T16:15:15;18.00;74.20
25732;DHT22;13585;50.864;4.406;2023-03-23T16:17:42;18.00;74.20
25732;DHT22;13585;50.864;4.406;2023-03-23T16:20:15;18.00;74.20
25732;DHT22;13585;50.864;4.406;2023-03-23T16:22:41;18.00;74.20
25732;DHT22;13585;50.864;4.406;2023-03-23T16:25:07;18.00;74.10
25732;DHT22;13585;50.864;4.406;2023-03-23T16:27:33;18.00;74.10
25732;DHT22;13585;50.864;4.406;2023-03-23T16:29:59;18.00;74.20
25732;DHT22;13585;50.864;4.406;2023-03-23T16:32:25;18.00;74.10
25732;DHT22;13585;50.864;4.406;2023-03-23T16:34:51;18.10;74.20
25732;DHT22;13585;50.864;4.406;2023-03-23T16:37:17;18.00;74.00
25732;DHT22;13585;50.864;4.406;2023-03-23T16:39:42;18.00;74.00
25732;DHT22;13585;50.864;4.406;2023-03-23T16:42:08;18.00;74.00
25732;DHT22;13585;50.864;4.406;2023-03-23T16:44:33;18.00;74.00
25732;DHT22;13585;50.864;4.406;2023-03-23T16:46:59;18.00;74.00
25732;DHT22;13585;50.864;4.406;2023-03-23T16:49:25;18.10;74.10
25732;DHT22;13585;50.864;4.406;2023-03-23T16:51:50;18.00;74.00
25732;DHT22;13585;50.864;4.406;2023-03-23T16:54:16;18.00;74.00
25732;DHT22;13585;50.864;4.406;2023-03-23T16:56:42;18.10;74.10
25732;DHT22;13585;50.864;4.406;2023-03-23T16:59:11;18.00;74.00
25732;DHT22;13585;50.864;4.406;2023-03-23T17:01:37;18.10;74.10
25732;DHT22;13585;50.864;4.406;2023-03-23T17:04:03;18.10;74.10
25732;DHT22;13585;50.864;4.406;2023-03-23T17:06:32;18.10;74.10
25732;DHT22;13585;50.864;4.406;2023-03-23T17:08:58;18.00;74.10
25732;DHT22;13585;50.864;4.406;2023-03-23T17:11:23;18.10;74.10
25732;DHT22;13585;50.864;4.406;2023-03-23T17:13:49;18.00;74.00
25732;DHT22;13585;50.864;4.406;2023-03-23T17:16:14;18.10;74.10
25732;DHT22;13585;50.864;4.406;2023-03-23T17:18:40;18.10;74.10
25732;DHT22;13585;50.864;4.406;2023-03-23T17:21:06;18.10;74.10
25732;DHT22;13585;50.864;4.406;2023-03-23T17:23:32;18.10;74.10
25732;DHT22;13585;50.864;4.406;2023-03-23T17:25:58;18.00;74.00
25732;DHT22;13585;50.864;4.406;2023-03-23T17:28:23;18.10;74.00
25732;DHT22;13585;50.864;4.406;2023-03-23T17:30:51;18.00;74.00
25732;DHT22;13585;50.864;4.406;2023-03-23T17:33:16;18.00;74.00
25732;DHT22;13585;50.864;4.406;2023-03-23T17:35:45;18.00;74.00
25732;DHT22;13585;50.864;4.406;2023-03-23T17:38:11;18.00;74.00
25732;DHT22;13585;50.864;4.406;2023-03-23T17:40:36;18.00;74.00
25732;DHT22;13585;50.864;4.406;2023-03-23T17:43:02;18.00;74.00
25732;DHT22;13585;50.864;4.406;2023-03-23T17:45:28;18.10;74.00
25732;DHT22;13585;50.864;4.406;2023-03-23T17:48:00;18.00;73.90
25732;DHT22;13585;50.864;4.406;2023-03-23T17:50:26;18.00;74.00
25732;DHT22;13585;50.864;4.406;2023-03-23T17:52:51;18.10;73.90
25732;DHT22;13585;50.864;4.406;2023-03-23T17:55:17;18.10;73.80
25732;DHT22;13585;50.864;4.406;2023-03-23T17:57:43;18.00;73.80
25732;DHT22;13585;50.864;4.406;2023-03-23T18:00:09;18.10;73.90
25732;DHT22;13585;50.864;4.406;2023-03-23T18:02:36;18.00;73.90
25732;DHT22;13585;50.864;4.406;2023-03-23T18:05:04;18.00;73.90
25732;DHT22;13585;50.864;4.406;2023-03-23T18:07:30;18.00;73.90
25732;DHT22;13585;50.864;4.406;2023-03-23T18:09:59;18.00;73.90
25732;DHT22;13585;50.864;4.406;2023-03-23T18:12:25;18.00;73.90
25732;DHT22;13585;50.864;4.406;2023-03-23T18:14:57;18.00;73.90
25732;DHT22;13585;50.864;4.406;2023-03-23T18:17:26;18.00;73.90
25732;DHT22;13585;50.864;4.406;2023-03-23T18:19:52;18.00;73.90